Terminal Aerodrome Forecast
Issued by NWS

Home | Current Version | Previous Version | Text Only | Print | Product List | Glossary On
Versions: 1 2 3 4 5 6 7 8 9 10 11 12 13 14 15 16 17 18 19 20 21 22 23 24 25 26 27 28 29 30 31 32 33 34 35 36 37 38 39 40 41 42 43 44 45 46 47 48 49 50
000
FTUS42 KRAH 031757 AAA
TAFINT
TAF AMD
KINT 031757Z 0318/0418 18009KT 3SM BR SCT009 OVC015
      TEMPO 0318/0320 1 1/2SM BR BKN008
     FM032000 19006KT 6SM BR SCT012 OVC020
      TEMPO 0320/0324 VRB15G30KT 3SM -TSRA BKN014CB OVC040
     FM040100 23008KT P6SM SCT020 SCT050 BKN250
     FM041000 24005KT 5SM BR BKN005
     FM041400 22010G18KT P6SM BKN035=

USA.gov is the U.S. government's official web portal to all federal, state and local government web resources and services.